createdAt,value
2019-03-06T00:00:23.335Z,7.63
2019-03-06T00:02:51.353Z,7.83
2019-03-06T00:05:17.714Z,7.83
2019-03-06T00:07:43.922Z,7.90
2019-03-06T00:10:30.143Z,7.43
2019-03-06T00:12:56.452Z,8.20
2019-03-06T00:15:23.914Z,7.40
2019-03-06T00:17:50.247Z,6.97
2019-03-06T00:20:16.868Z,7.07
2019-03-06T00:22:43.170Z,6.93
2019-03-06T00:25:09.594Z,6.63
2019-03-06T00:27:35.815Z,6.80
2019-03-06T00:30:05.135Z,6.20
2019-03-06T00:32:31.366Z,6.37
2019-03-06T00:34:59.735Z,7.00
2019-03-06T00:37:25.835Z,6.90
2019-03-06T00:39:53.961Z,6.57
2019-03-06T00:42:20.279Z,6.57
2019-03-06T00:44:46.526Z,7.33
2019-03-06T00:47:12.722Z,7.40
2019-03-06T00:49:40.094Z,7.40
2019-03-06T00:52:06.328Z,7.37
2019-03-06T00:54:32.562Z,7.33
2019-03-06T00:56:58.750Z,7.03
2019-03-06T00:59:30.983Z,8.13
2019-03-06T01:01:57.287Z,8.47
2019-03-06T01:04:23.519Z,8.53
2019-03-06T01:06:49.812Z,8.50
2019-03-06T01:09:15.946Z,8.90
2019-03-06T01:11:42.171Z,9.33
2019-03-06T01:14:10.884Z,8.70
2019-03-06T01:16:37.327Z,9.43
2019-03-06T01:19:06.106Z,9.27
2019-03-06T01:21:32.197Z,9.40
2019-03-06T01:23:58.390Z,8.80
2019-03-06T01:26:24.616Z,8.93
2019-03-06T01:28:50.820Z,8.93
2019-03-06T01:31:17.385Z,8.20
2019-03-06T01:33:45.520Z,8.90
2019-03-06T01:36:16.253Z,8.50
2019-03-06T01:39:01.227Z,8.70
2019-03-06T01:41:31.346Z,8.60
2019-03-06T01:44:02.311Z,8.13
2019-03-06T01:46:28.446Z,8.40
2019-03-06T01:48:54.687Z,7.57
2019-03-06T01:51:20.905Z,7.93
2019-03-06T01:53:47.111Z,7.23
2019-03-06T01:56:13.420Z,7.90
2019-03-06T01:58:39.578Z,7.77
2019-03-06T02:01:05.861Z,7.77
2019-03-06T02:03:32.167Z,7.80
2019-03-06T02:05:58.375Z,8.20
2019-03-06T02:08:24.602Z,7.53
2019-03-06T02:10:51.009Z,7.73
2019-03-06T02:13:20.918Z,7.27
2019-03-06T02:15:47.027Z,8.10
2019-03-06T02:18:13.103Z,7.33
2019-03-06T02:20:39.351Z,7.17
2019-03-06T02:23:05.637Z,7.20
2019-03-06T02:25:31.845Z,7.10
2019-03-06T02:27:58.086Z,7.10
2019-03-06T02:30:24.842Z,6.17
2019-03-06T02:32:51.185Z,6.87
2019-03-06T02:35:17.485Z,6.97
2019-03-06T02:37:43.841Z,6.47
2019-03-06T02:40:11.424Z,6.67
2019-03-06T02:42:37.633Z,6.30
2019-03-06T02:45:07.553Z,6.40
2019-03-06T02:47:33.908Z,5.60
2019-03-06T02:50:00.165Z,5.90
2019-03-06T02:52:26.527Z,5.37
2019-03-06T02:54:53.076Z,5.27
2019-03-06T02:57:19.283Z,5.03
2019-03-06T02:59:47.301Z,6.00
2019-03-06T03:02:15.441Z,5.50
2019-03-06T03:04:46.235Z,6.17
2019-03-06T03:07:12.619Z,5.20
2019-03-06T03:09:38.745Z,5.17
2019-03-06T03:12:05.066Z,5.63
2019-03-06T03:14:31.373Z,4.83
2019-03-06T03:16:57.598Z,5.47
2019-03-06T03:19:24.890Z,5.37
2019-03-06T03:21:51.024Z,4.93
2019-03-06T03:24:17.476Z,4.90
2019-03-06T03:26:43.697Z,5.03
2019-03-06T03:29:09.807Z,5.13
2019-03-06T03:31:35.901Z,4.60
2019-03-06T03:34:02.134Z,4.93
2019-03-06T03:36:28.306Z,4.93
2019-03-06T03:38:54.639Z,4.90
2019-03-06T03:41:21.026Z,5.30
2019-03-06T03:43:47.327Z,5.47
2019-03-06T03:46:13.444Z,5.20
2019-03-06T03:48:39.560Z,5.37
2019-03-06T03:51:05.752Z,5.63
2019-03-06T03:53:31.959Z,5.57
2019-03-06T03:55:58.187Z,5.70
2019-03-06T03:58:24.619Z,6.43
2019-03-06T04:00:50.726Z,6.20
2019-03-06T04:03:16.899Z,6.70
2019-03-06T04:05:44.151Z,6.03
2019-03-06T04:08:10.315Z,6.37
2019-03-06T04:10:36.897Z,6.90
2019-03-06T04:13:03.497Z,6.53
2019-03-06T04:15:30.809Z,7.03
2019-03-06T04:17:57.059Z,7.27
2019-03-06T04:20:23.254Z,7.30
2019-03-06T04:22:49.505Z,7.77
2019-03-06T04:25:15.602Z,7.60
2019-03-06T04:27:41.908Z,7.97
2019-03-06T04:30:12.918Z,8.10
2019-03-06T04:32:39.279Z,9.10
2019-03-06T04:35:06.086Z,9.50
2019-03-06T04:37:32.231Z,10.10
2019-03-06T04:39:58.332Z,11.30
2019-03-06T04:42:24.556Z,11.90
2019-03-06T04:44:50.653Z,11.70
2019-03-06T04:47:16.750Z,11.60
2019-03-06T04:49:52.205Z,11.83
2019-03-06T04:52:11.003Z,10.33
2019-03-06T04:54:37.224Z,11.63
2019-03-06T04:57:03.300Z,11.67
2019-03-06T04:59:29.527Z,11.00
2019-03-06T05:01:56.939Z,12.13
2019-03-06T05:04:23.102Z,11.90
2019-03-06T05:06:49.233Z,12.20
2019-03-06T05:09:15.505Z,13.27
2019-03-06T05:11:41.844Z,12.87
2019-03-06T05:14:08.248Z,13.97
2019-03-06T05:16:51.321Z,14.30
2019-03-06T05:19:17.529Z,15.17
2019-03-06T05:21:43.646Z,15.43
2019-03-06T05:24:09.810Z,17.03
2019-03-06T05:26:36.272Z,17.57
2019-03-06T05:29:02.469Z,17.63
2019-03-06T05:31:29.739Z,17.27
2019-03-06T05:33:55.855Z,16.23
2019-03-06T05:36:35.062Z,17.27
2019-03-06T05:39:03.639Z,16.77
2019-03-06T05:41:31.766Z,17.53
2019-03-06T05:43:57.929Z,16.97
2019-03-06T05:46:24.177Z,17.20
2019-03-06T05:48:50.411Z,17.23
2019-03-06T05:51:16.497Z,17.23
2019-03-06T05:53:42.722Z,16.33
2019-03-06T05:56:08.958Z,17.30
2019-03-06T05:58:35.157Z,16.70
2019-03-06T06:01:01.489Z,17.00
2019-03-06T06:03:27.584Z,16.07
2019-03-06T06:05:53.707Z,16.10
2019-03-06T06:08:19.809Z,16.43
2019-03-06T06:10:45.894Z,16.20
2019-03-06T06:13:12.210Z,16.33
2019-03-06T06:15:38.333Z,16.27
2019-03-06T06:18:04.443Z,15.17
2019-03-06T06:20:30.652Z,15.83
2019-03-06T06:23:10.928Z,16.07
2019-03-06T06:25:37.247Z,15.77
2019-03-06T06:28:03.531Z,15.20
2019-03-06T06:30:30.093Z,14.83
2019-03-06T06:32:56.202Z,15.40
2019-03-06T06:35:23.533Z,15.93
2019-03-06T06:37:49.675Z,15.70
2019-03-06T06:40:15.772Z,15.00
2019-03-06T06:42:41.978Z,16.83
2019-03-06T06:45:10.267Z,16.77
2019-03-06T06:47:56.865Z,16.70
2019-03-06T06:50:23.157Z,15.93
2019-03-06T06:53:18.856Z,16.67
2019-03-06T06:55:48.857Z,17.37
2019-03-06T06:58:45.868Z,17.43
2019-03-06T07:01:26.579Z,17.17
2019-03-06T07:04:22.492Z,17.40
2019-03-06T07:06:56.498Z,16.73
2019-03-06T07:09:24.583Z,17.70
2019-03-06T07:11:58.720Z,16.63
2019-03-06T07:14:26.969Z,17.73
2019-03-06T07:16:55.103Z,16.67
2019-03-06T07:19:32.447Z,18.20
2019-03-06T07:22:00.727Z,17.33
2019-03-06T07:24:28.814Z,17.13
2019-03-06T07:27:13.682Z,17.13
2019-03-06T07:29:44.506Z,17.40
2019-03-06T07:32:30.600Z,17.87
2019-03-06T07:35:42.187Z,17.33
2019-03-06T07:38:09.101Z,17.17
2019-03-06T07:40:37.778Z,17.17
2019-03-06T07:43:14.479Z,17.73
2019-03-06T07:45:48.483Z,17.50
2019-03-06T07:48:28.816Z,17.27
2019-03-06T07:50:59.579Z,17.63
2019-03-06T07:53:45.591Z,17.70
2019-03-06T07:56:13.615Z,17.43
2019-03-06T07:58:53.378Z,17.07
2019-03-06T08:01:21.508Z,17.87
2019-03-06T08:03:51.009Z,16.80
2019-03-06T08:06:17.185Z,17.20
2019-03-06T08:08:43.415Z,16.70
2019-03-06T08:11:11.469Z,16.83
2019-03-06T08:13:39.536Z,16.80
2019-03-06T08:16:07.789Z,17.50
2019-03-06T08:18:38.841Z,16.67
2019-03-06T08:21:18.720Z,15.13
2019-03-06T08:23:46.882Z,15.73
2019-03-06T08:26:13.258Z,15.57
2019-03-06T08:28:39.601Z,16.27
2019-03-06T08:31:07.939Z,15.27
2019-03-06T08:33:34.193Z,15.77
2019-03-06T08:36:00.621Z,15.07
2019-03-06T08:38:26.899Z,15.30
2019-03-06T08:40:53.214Z,14.63
2019-03-06T08:43:19.536Z,14.33
2019-03-06T08:45:48.081Z,14.33
2019-03-06T08:48:26.140Z,14.87
2019-03-06T08:51:06.347Z,15.10
2019-03-06T08:53:49.658Z,14.47
2019-03-06T08:56:29.989Z,13.90
2019-03-06T08:59:01.012Z,14.70
2019-03-06T09:01:32.128Z,13.13
2019-03-06T09:04:00.199Z,13.53
2019-03-06T09:06:30.947Z,12.60
2019-03-06T09:09:07.943Z,11.80
2019-03-06T09:11:45.814Z,11.90
2019-03-06T09:14:15.140Z,12.30
2019-03-06T09:16:49.053Z,12.57
2019-03-06T09:19:33.649Z,12.33
2019-03-06T09:22:11.066Z,11.53
2019-03-06T09:24:55.879Z,12.37
2019-03-06T09:27:26.878Z,12.13
2019-03-06T09:29:57.965Z,11.80
2019-03-06T09:32:28.913Z,12.10
2019-03-06T09:35:12.296Z,12.63
2019-03-06T09:37:57.295Z,12.57
2019-03-06T09:40:34.276Z,11.77
2019-03-06T09:43:05.280Z,10.80
2019-03-06T09:45:39.098Z,11.43
2019-03-06T09:48:13.210Z,10.67
2019-03-06T09:50:44.376Z,10.07
2019-03-06T09:53:12.520Z,10.80
2019-03-06T09:55:56.062Z,10.17
2019-03-06T09:58:24.172Z,10.27
2019-03-06T10:01:07.220Z,9.57
2019-03-06T10:03:38.302Z,9.10
2019-03-06T10:06:09.341Z,7.37
2019-03-06T10:08:49.749Z,6.80
2019-03-06T10:11:26.827Z,6.10
2019-03-06T10:14:10.254Z,6.50
2019-03-06T10:16:38.363Z,6.10
2019-03-06T10:19:15.669Z,5.90
2019-03-06T10:21:41.861Z,5.80
2019-03-06T10:24:09.280Z,5.30
2019-03-06T10:26:35.591Z,5.47
2019-03-06T10:29:01.893Z,5.03
2019-03-06T10:31:28.204Z,4.90
2019-03-06T10:33:54.483Z,4.70
2019-03-06T10:36:20.679Z,4.50
2019-03-06T10:38:47.009Z,4.20
2019-03-06T10:41:13.781Z,4.10
2019-03-06T10:43:48.666Z,4.73
2019-03-06T10:46:08.051Z,4.10
2019-03-06T10:48:34.577Z,4.50
2019-03-06T10:51:01.047Z,4.40
2019-03-06T10:53:27.352Z,4.50
2019-03-06T10:55:53.660Z,4.03
2019-03-06T10:58:19.953Z,4.60
2019-03-06T11:00:50.961Z,4.70
2019-03-06T11:03:17.690Z,4.33
2019-03-06T11:05:44.203Z,4.20
2019-03-06T11:08:11.294Z,4.07
2019-03-06T11:10:37.643Z,4.33
2019-03-06T11:13:08.572Z,4.40
2019-03-06T11:15:35.160Z,4.03
2019-03-06T11:18:01.490Z,4.13
2019-03-06T11:20:31.416Z,3.37
2019-03-06T11:22:59.894Z,3.53
2019-03-06T11:25:27.343Z,3.27
2019-03-06T11:27:53.806Z,3.47
2019-03-06T11:30:29.790Z,2.97
2019-03-06T11:32:56.101Z,3.00
2019-03-06T11:35:22.944Z,3.10
2019-03-06T11:37:49.478Z,3.30
2019-03-06T11:40:16.408Z,3.03
2019-03-06T11:42:43.015Z,3.17
2019-03-06T11:45:15.603Z,2.80
2019-03-06T11:47:42.105Z,2.73
2019-03-06T11:50:09.870Z,2.77
2019-03-06T11:52:36.301Z,2.70
2019-03-06T11:55:07.660Z,3.00
2019-03-06T11:57:34.693Z,2.77
2019-03-06T12:00:19.781Z,2.80
2019-03-06T12:02:46.630Z,2.80
2019-03-06T12:05:12.951Z,2.50
2019-03-06T12:07:39.248Z,2.80
2019-03-06T12:10:08.116Z,2.90
2019-03-06T12:12:34.861Z,2.77
2019-03-06T12:15:01.184Z,3.00
2019-03-06T12:17:27.313Z,2.63
2019-03-06T12:19:53.601Z,3.20
2019-03-06T12:22:20.898Z,2.73
2019-03-06T12:24:47.223Z,2.70
2019-03-06T12:27:13.493Z,2.53
2019-03-06T12:29:40.850Z,3.00
2019-03-06T12:32:07.485Z,2.47
2019-03-06T12:34:33.833Z,2.90
2019-03-06T12:37:00.080Z,2.53
2019-03-06T12:39:26.260Z,2.43
2019-03-06T12:41:52.532Z,2.60
2019-03-06T12:44:18.958Z,2.93
2019-03-06T12:46:45.370Z,2.30
2019-03-06T12:49:11.887Z,2.40
2019-03-06T12:51:38.242Z,2.43
2019-03-06T12:54:04.746Z,2.43
2019-03-06T12:56:31.051Z,2.70
2019-03-06T12:58:57.271Z,2.73
2019-03-06T13:01:23.618Z,2.73
2019-03-06T13:03:49.763Z,2.80
2019-03-06T13:06:24.066Z,2.60
2019-03-06T13:08:50.373Z,2.80
2019-03-06T13:11:12.994Z,2.50
2019-03-06T13:13:39.250Z,2.67
2019-03-06T13:16:05.551Z,2.80
2019-03-06T13:18:31.828Z,2.77
2019-03-06T13:20:58.166Z,2.80
2019-03-06T13:23:24.588Z,2.40
2019-03-06T13:25:50.809Z,3.10
2019-03-06T13:28:17.148Z,2.63
2019-03-06T13:30:43.486Z,2.90
2019-03-06T13:33:13.696Z,3.00
2019-03-06T13:35:41.095Z,2.87
2019-03-06T13:38:07.406Z,2.70
2019-03-06T13:40:33.743Z,2.73
2019-03-06T13:43:00.360Z,2.67
2019-03-06T13:45:26.808Z,2.53
2019-03-06T13:47:53.025Z,2.63
2019-03-06T13:50:20.077Z,3.00
2019-03-06T13:52:46.479Z,2.50
2019-03-06T13:55:14.053Z,2.90
2019-03-06T13:57:40.687Z,2.60
2019-03-06T14:00:21.001Z,2.67
2019-03-06T14:02:48.153Z,2.70
2019-03-06T14:05:15.577Z,2.20
2019-03-06T14:07:42.027Z,2.33
2019-03-06T14:10:09.235Z,2.27
2019-03-06T14:12:35.490Z,2.43
2019-03-06T14:15:03.639Z,2.40
2019-03-06T14:17:30.251Z,2.60
2019-03-06T14:19:56.596Z,2.53
2019-03-06T14:22:22.940Z,2.40
2019-03-06T14:24:49.352Z,2.47
2019-03-06T14:27:15.805Z,1.90
2019-03-06T14:29:42.060Z,2.03
2019-03-06T14:32:14.683Z,2.13
2019-03-06T14:34:37.939Z,2.30
2019-03-06T14:37:04.553Z,2.17
2019-03-06T14:39:30.771Z,2.00
2019-03-06T14:41:57.513Z,2.27
2019-03-06T14:44:24.736Z,2.03
2019-03-06T14:46:51.101Z,2.73
2019-03-06T14:49:17.354Z,2.87
2019-03-06T14:51:43.714Z,2.47
2019-03-06T14:54:10.180Z,3.00
2019-03-06T14:56:36.494Z,2.40
2019-03-06T14:59:02.851Z,2.67
2019-03-06T15:01:28.956Z,3.07
2019-03-06T15:03:55.236Z,3.10
2019-03-06T15:06:21.343Z,2.90
2019-03-06T15:08:47.673Z,2.90
2019-03-06T15:11:13.902Z,2.80
2019-03-06T15:13:41.434Z,3.00
2019-03-06T15:16:08.830Z,2.87
2019-03-06T15:18:35.206Z,2.90
2019-03-06T15:21:01.567Z,3.10
2019-03-06T15:23:27.937Z,3.43
2019-03-06T15:25:54.200Z,3.10
2019-03-06T15:28:20.365Z,3.17
2019-03-06T15:30:46.708Z,3.50
2019-03-06T15:33:13.057Z,3.67
2019-03-06T15:35:39.377Z,2.60
2019-03-06T15:38:06.621Z,2.50
2019-03-06T15:40:35.050Z,2.67
2019-03-06T15:43:01.344Z,2.63
2019-03-06T15:45:29.596Z,2.77
2019-03-06T15:47:56.148Z,2.40
2019-03-06T15:50:22.713Z,2.70
2019-03-06T15:52:49.507Z,2.60
2019-03-06T15:55:25.530Z,2.30
2019-03-06T15:57:52.231Z,2.60
2019-03-06T16:00:32.553Z,2.23
2019-03-06T16:02:58.889Z,2.33
2019-03-06T16:05:25.220Z,2.30
2019-03-06T16:07:51.509Z,2.37
2019-03-06T16:10:17.930Z,2.33
2019-03-06T16:12:46.180Z,2.20
2019-03-06T16:15:13.135Z,2.50
2019-03-06T16:17:39.675Z,2.20
2019-03-06T16:20:12.642Z,2.23
2019-03-06T16:22:39.097Z,2.60
2019-03-06T16:25:06.187Z,2.40
2019-03-06T16:27:32.644Z,2.87
2019-03-06T16:29:58.989Z,2.37
2019-03-06T16:32:25.795Z,2.57
2019-03-06T16:34:54.665Z,2.20
2019-03-06T16:37:21.020Z,2.20
2019-03-06T16:39:47.310Z,2.30
2019-03-06T16:42:15.618Z,2.37
2019-03-06T16:44:41.962Z,2.10
2019-03-06T16:47:08.285Z,2.90
2019-03-06T16:49:36.920Z,2.40
2019-03-06T16:52:06.190Z,2.63
2019-03-06T16:54:32.563Z,2.97
2019-03-06T16:56:59.080Z,2.70
2019-03-06T16:59:25.419Z,2.40
2019-03-06T17:01:51.848Z,2.27
2019-03-06T17:04:18.190Z,2.50
2019-03-06T17:06:44.783Z,2.43
2019-03-06T17:09:11.283Z,2.03
2019-03-06T17:11:38.294Z,2.30
2019-03-06T17:14:07.895Z,2.53
2019-03-06T17:16:34.304Z,2.57
2019-03-06T17:21:39.718Z,3.00
2019-03-06T17:24:06.159Z,2.47
2019-03-06T17:26:32.608Z,2.90
2019-03-06T17:29:06.816Z,3.13
2019-03-06T17:31:45.405Z,4.90
2019-03-06T17:34:12.141Z,3.20
2019-03-06T17:36:43.666Z,3.60
2019-03-06T17:39:16.993Z,2.90
2019-03-06T17:41:43.331Z,3.43
2019-03-06T17:44:11.149Z,3.10
2019-03-06T17:46:37.653Z,2.93
2019-03-06T17:49:06.310Z,3.50
2019-03-06T17:51:35.529Z,3.20
2019-03-06T17:54:09.341Z,3.70
2019-03-06T17:56:35.910Z,3.10
2019-03-06T17:59:08.567Z,3.23
2019-03-06T18:01:34.952Z,3.00
2019-03-06T18:04:06.816Z,3.73
2019-03-06T18:06:33.275Z,3.57
2019-03-06T18:08:59.580Z,3.63
2019-03-06T18:11:25.883Z,3.90
2019-03-06T18:13:52.280Z,3.97
2019-03-06T18:16:26.903Z,3.40
2019-03-06T18:18:53.440Z,3.20
2019-03-06T18:21:24.569Z,3.40
2019-03-06T18:23:50.897Z,2.80
2019-03-06T18:26:17.319Z,2.60
2019-03-06T18:28:43.830Z,2.87
2019-03-06T18:31:10.297Z,2.80
2019-03-06T18:33:36.814Z,3.20
2019-03-06T18:36:04.859Z,3.27
2019-03-06T18:38:36.579Z,2.90
2019-03-06T18:41:08.522Z,2.60
2019-03-06T18:43:35.159Z,2.37
2019-03-06T18:46:06.181Z,2.73
2019-03-06T18:48:32.527Z,2.80
2019-03-06T18:50:59.002Z,2.80
2019-03-06T18:53:25.453Z,2.83
2019-03-06T18:55:51.911Z,2.70
2019-03-06T18:58:18.318Z,2.43
2019-03-06T19:00:45.687Z,2.90
2019-03-06T19:03:12.002Z,2.73
2019-03-06T19:05:38.469Z,2.60
2019-03-06T19:08:05.029Z,2.73
2019-03-06T19:10:32.073Z,2.77
2019-03-06T19:12:58.644Z,2.70
2019-03-06T19:15:26.262Z,2.40
2019-03-06T19:17:52.744Z,2.63
2019-03-06T19:20:20.107Z,2.30
2019-03-06T19:22:47.402Z,2.60
2019-03-06T19:25:14.438Z,2.97
2019-03-06T19:27:40.898Z,2.90
2019-03-06T19:30:21.951Z,3.03
2019-03-06T19:32:49.499Z,2.73
2019-03-06T19:35:16.799Z,2.77
2019-03-06T19:37:43.060Z,2.50
2019-03-06T19:40:11.552Z,2.70
2019-03-06T19:42:38.062Z,2.67
2019-03-06T19:45:10.450Z,2.60
2019-03-06T19:47:36.907Z,3.00
2019-03-06T19:50:09.867Z,2.80
2019-03-06T19:52:36.350Z,2.63
2019-03-06T19:55:04.261Z,2.80
2019-03-06T19:57:43.439Z,2.70
2019-03-06T20:00:10.061Z,3.00
2019-03-06T20:02:36.596Z,3.10
2019-03-06T20:05:04.256Z,2.83
2019-03-06T20:07:30.711Z,2.87
2019-03-06T20:09:56.945Z,3.17
2019-03-06T20:12:23.224Z,3.10
2019-03-06T20:14:49.747Z,3.37
2019-03-06T20:17:16.199Z,3.00
2019-03-06T20:19:42.564Z,3.00
2019-03-06T20:22:09.009Z,3.00
2019-03-06T20:24:35.607Z,3.03
2019-03-06T20:27:02.317Z,3.10
2019-03-06T20:29:28.888Z,2.70
2019-03-06T20:31:55.238Z,3.10
2019-03-06T20:34:21.596Z,2.90
2019-03-06T20:36:48.252Z,2.87
2019-03-06T20:39:14.707Z,3.30
2019-03-06T20:41:41.242Z,3.00
2019-03-06T20:44:07.496Z,3.10
2019-03-06T20:46:33.848Z,2.90
2019-03-06T20:49:00.011Z,3.07
2019-03-06T20:51:26.463Z,3.40
2019-03-06T20:53:52.876Z,3.03
2019-03-06T20:56:19.601Z,3.07
2019-03-06T20:58:45.962Z,3.20
2019-03-06T21:01:12.630Z,3.00
2019-03-06T21:03:39.010Z,3.20
2019-03-06T21:06:05.316Z,2.93
2019-03-06T21:08:31.674Z,3.10
2019-03-06T21:10:58.018Z,3.60
2019-03-06T21:13:24.502Z,3.20
2019-03-06T21:15:50.975Z,3.50
2019-03-06T21:18:18.420Z,3.30
2019-03-06T21:20:44.691Z,3.70
2019-03-06T21:23:11.203Z,3.73
2019-03-06T21:25:37.552Z,3.50
2019-03-06T21:28:03.956Z,3.50
2019-03-06T21:30:32.151Z,3.50
2019-03-06T21:32:58.483Z,4.07
2019-03-06T21:35:24.850Z,3.80
2019-03-06T21:37:51.308Z,3.93
2019-03-06T21:40:17.819Z,3.80
2019-03-06T21:42:44.522Z,4.37
2019-03-06T21:45:11.987Z,4.17
2019-03-06T21:47:38.302Z,4.43
2019-03-06T21:50:15.428Z,3.63
2019-03-06T21:52:41.756Z,4.20
2019-03-06T21:55:10.390Z,3.90
2019-03-06T21:57:36.847Z,4.40
2019-03-06T22:00:06.837Z,4.50
2019-03-06T22:02:34.437Z,4.50
2019-03-06T22:05:00.705Z,4.20
2019-03-06T22:07:27.129Z,5.00
2019-03-06T22:09:53.273Z,4.23
2019-03-06T22:12:19.502Z,4.90
2019-03-06T22:14:45.636Z,4.80
2019-03-06T22:17:12.110Z,4.70
2019-03-06T22:19:38.571Z,4.73
2019-03-06T22:22:04.808Z,5.13
2019-03-06T22:24:31.235Z,4.80
2019-03-06T22:26:57.839Z,5.13
2019-03-06T22:29:24.122Z,4.73
2019-03-06T22:31:50.532Z,5.20
2019-03-06T22:34:16.883Z,5.37
2019-03-06T22:36:42.997Z,5.10
2019-03-06T22:39:09.539Z,5.10
2019-03-06T22:41:36.049Z,4.60
2019-03-06T22:44:02.383Z,5.10
2019-03-06T22:46:28.702Z,5.33
2019-03-06T22:48:54.828Z,5.03
2019-03-06T22:51:21.182Z,4.77
2019-03-06T22:53:47.289Z,4.57
2019-03-06T22:56:13.708Z,5.03
2019-03-06T22:58:39.835Z,4.53
2019-03-06T23:01:15.581Z,5.40
2019-03-06T23:03:43.820Z,4.73
2019-03-06T23:06:10.113Z,4.93
2019-03-06T23:08:36.824Z,4.90
2019-03-06T23:11:03.637Z,5.43
2019-03-06T23:13:32.497Z,4.60
2019-03-06T23:15:59.045Z,4.90
2019-03-06T23:18:25.339Z,4.70
2019-03-06T23:20:51.689Z,4.70
2019-03-06T23:23:19.250Z,4.63
2019-03-06T23:25:46.992Z,4.17
2019-03-06T23:28:14.802Z,4.47
2019-03-06T23:30:41.623Z,3.90
2019-03-06T23:33:08.182Z,4.47
2019-03-06T23:35:38.802Z,3.97
2019-03-06T23:38:07.212Z,4.70
2019-03-06T23:40:33.596Z,4.43
2019-03-06T23:42:59.807Z,4.10
2019-03-06T23:45:25.952Z,4.20
2019-03-06T23:47:52.172Z,4.00
2019-03-06T23:50:18.565Z,4.20
2019-03-06T23:53:05.811Z,4.30
2019-03-06T23:55:32.333Z,4.57
2019-03-06T23:57:58.563Z,4.03
